createdAt,value
2023-05-19T00:00:01.026Z,9.73
2023-05-19T00:02:33.573Z,9.68
2023-05-19T00:05:03.106Z,9.71
2023-05-19T00:07:32.506Z,9.70
2023-05-19T00:09:59.496Z,9.72
2023-05-19T00:12:26.516Z,9.77
2023-05-19T00:14:53.389Z,9.79
2023-05-19T00:17:20.582Z,9.78
2023-05-19T00:19:47.228Z,9.79
2023-05-19T00:22:15.066Z,9.81
2023-05-19T00:24:42.040Z,9.82
2023-05-19T00:27:08.673Z,9.85
2023-05-19T00:29:35.263Z,9.81
2023-05-19T00:32:02.061Z,9.80
2023-05-19T00:34:28.812Z,9.77
2023-05-19T00:36:55.623Z,9.72
2023-05-19T00:39:22.400Z,9.70
2023-05-19T00:41:49.059Z,9.68
2023-05-19T00:44:15.741Z,9.64
2023-05-19T00:46:42.549Z,9.58
2023-05-19T00:49:09.255Z,9.54
2023-05-19T00:51:37.205Z,9.50
2023-05-19T00:54:04.222Z,9.42
2023-05-19T00:56:31.683Z,9.35
2023-05-19T00:59:00.841Z,9.21
2023-05-19T01:01:28.201Z,9.10
2023-05-19T01:03:59.024Z,9.02
2023-05-19T01:06:27.706Z,8.92
2023-05-19T01:08:54.364Z,8.83
2023-05-19T01:11:21.552Z,8.75
2023-05-19T01:13:48.517Z,8.71
2023-05-19T01:16:30.782Z,8.62
2023-05-19T01:19:05.129Z,8.56
2023-05-19T01:21:56.772Z,8.53
2023-05-19T01:24:30.580Z,8.45
2023-05-19T01:27:35.825Z,8.41
2023-05-19T01:30:25.860Z,8.35
2023-05-19T01:33:03.448Z,8.24
2023-05-19T01:35:31.197Z,8.17
2023-05-19T01:38:00.139Z,8.14
2023-05-19T01:40:28.191Z,8.12
2023-05-19T01:42:58.606Z,8.08
2023-05-19T01:45:28.013Z,8.06
2023-05-19T01:47:57.657Z,8.00
2023-05-19T01:50:24.746Z,8.01
2023-05-19T01:52:52.455Z,8.01
2023-05-19T01:55:19.282Z,7.97
2023-05-19T01:58:23.172Z,7.94
2023-05-19T02:00:59.463Z,7.93
2023-05-19T02:03:49.435Z,7.88
2023-05-19T02:06:19.719Z,7.84
2023-05-19T02:08:52.253Z,7.87
2023-05-19T02:11:25.836Z,7.84
2023-05-19T02:13:56.873Z,7.91
2023-05-19T02:16:28.623Z,7.98
2023-05-19T02:18:56.482Z,7.98
2023-05-19T02:21:23.221Z,7.97
2023-05-19T02:23:50.587Z,7.89
2023-05-19T02:26:19.845Z,7.81
2023-05-19T02:28:46.560Z,7.78
2023-05-19T02:31:13.210Z,7.76
2023-05-19T02:33:39.911Z,7.76
2023-05-19T02:36:06.945Z,7.82
2023-05-19T02:38:33.608Z,7.89
2023-05-19T02:41:00.709Z,7.90
2023-05-19T02:43:27.388Z,7.87
2023-05-19T02:45:54.101Z,7.90
2023-05-19T02:48:20.704Z,7.87
2023-05-19T02:50:47.334Z,7.86
2023-05-19T02:53:14.040Z,7.90
2023-05-19T02:55:40.708Z,7.92
2023-05-19T02:58:07.449Z,7.93
2023-05-19T03:00:34.377Z,7.89
2023-05-19T03:03:03.028Z,7.89
2023-05-19T03:05:32.694Z,7.86
2023-05-19T03:07:59.313Z,7.81
2023-05-19T03:10:25.967Z,7.79
2023-05-19T03:12:52.628Z,7.74
2023-05-19T03:15:19.364Z,7.73
2023-05-19T03:17:46.119Z,7.70
2023-05-19T03:20:13.012Z,7.71
2023-05-19T03:22:39.726Z,7.68
2023-05-19T03:25:06.616Z,7.70
2023-05-19T03:27:33.221Z,7.67
2023-05-19T03:29:59.932Z,7.62
2023-05-19T03:32:26.953Z,7.55
2023-05-19T03:34:53.884Z,7.52
2023-05-19T03:37:20.756Z,7.50
2023-05-19T03:39:47.414Z,7.48
2023-05-19T03:42:14.110Z,7.46
2023-05-19T03:44:40.784Z,7.55
2023-05-19T03:47:07.594Z,7.59
2023-05-19T03:49:53.139Z,7.61
2023-05-19T03:52:39.764Z,7.65
2023-05-19T03:55:16.598Z,7.70
2023-05-19T03:57:44.436Z,7.76
2023-05-19T04:00:12.333Z,7.85
2023-05-19T04:02:41.115Z,7.87
2023-05-19T04:05:08.573Z,7.91
2023-05-19T04:07:37.021Z,7.98
2023-05-19T04:10:05.570Z,8.04
2023-05-19T04:12:33.012Z,8.09
2023-05-19T04:15:00.169Z,8.14
2023-05-19T04:17:27.506Z,8.17
2023-05-19T04:19:55.057Z,8.18
2023-05-19T04:22:22.516Z,8.23
2023-05-19T04:24:51.611Z,8.31
2023-05-19T04:27:18.397Z,8.29
2023-05-19T04:29:48.305Z,8.36
2023-05-19T04:32:17.637Z,8.44
2023-05-19T04:34:47.434Z,8.53
2023-05-19T04:37:20.632Z,8.57
2023-05-19T04:39:48.257Z,8.60
2023-05-19T04:42:19.181Z,8.63
2023-05-19T04:44:51.645Z,8.57
2023-05-19T04:47:21.562Z,8.58
2023-05-19T04:49:49.350Z,8.43
2023-05-19T04:52:21.643Z,8.47
2023-05-19T04:54:48.428Z,8.56
2023-05-19T04:57:15.131Z,8.62
2023-05-19T04:59:41.799Z,8.67
2023-05-19T05:02:08.585Z,8.80
2023-05-19T05:04:38.409Z,8.83
2023-05-19T05:07:06.034Z,8.88
2023-05-19T05:09:33.346Z,8.90
2023-05-19T05:12:03.091Z,8.96
2023-05-19T05:14:30.579Z,8.97
2023-05-19T05:16:57.952Z,9.02
2023-05-19T05:19:25.154Z,9.16
2023-05-19T05:21:52.370Z,9.10
2023-05-19T05:24:20.433Z,9.06
2023-05-19T05:26:53.085Z,9.13
2023-05-19T05:29:20.868Z,9.33
2023-05-19T05:31:47.529Z,9.49
2023-05-19T05:34:14.436Z,9.70
2023-05-19T05:36:42.453Z,9.89
2023-05-19T05:39:09.711Z,9.89
2023-05-19T05:41:37.933Z,9.84
2023-05-19T05:44:10.235Z,9.98
2023-05-19T05:46:39.561Z,10.18
2023-05-19T05:49:06.635Z,10.34
2023-05-19T05:51:33.769Z,10.38
2023-05-19T05:54:02.825Z,10.31
2023-05-19T05:56:37.041Z,10.35
2023-05-19T05:59:05.904Z,10.40
2023-05-19T06:01:34.829Z,10.41
2023-05-19T06:04:03.631Z,10.40
2023-05-19T06:06:31.446Z,10.50
2023-05-19T06:08:59.142Z,10.61
2023-05-19T06:11:26.168Z,10.58
2023-05-19T06:13:54.277Z,10.66
2023-05-19T06:16:41.034Z,10.74
2023-05-19T06:19:08.047Z,10.75
2023-05-19T06:21:34.696Z,10.90
2023-05-19T06:24:01.453Z,11.02
2023-05-19T06:26:28.084Z,11.34
2023-05-19T06:28:54.867Z,11.75
2023-05-19T06:31:22.260Z,12.14
2023-05-19T06:33:53.793Z,12.40
2023-05-19T06:36:21.169Z,12.61
2023-05-19T06:38:48.588Z,12.75
2023-05-19T06:41:16.430Z,12.88
2023-05-19T06:43:47.024Z,13.03
2023-05-19T06:46:14.461Z,12.98
2023-05-19T06:48:43.275Z,12.89
2023-05-19T06:51:11.679Z,12.81
2023-05-19T06:53:40.920Z,12.88
2023-05-19T06:56:09.178Z,12.99
2023-05-19T06:58:39.487Z,12.87
2023-05-19T07:01:06.354Z,12.79
2023-05-19T07:03:39.241Z,12.84
2023-05-19T07:06:08.855Z,12.99
2023-05-19T07:08:37.233Z,13.06
2023-05-19T07:11:05.819Z,12.94
2023-05-19T07:13:33.013Z,12.81
2023-05-19T07:15:59.828Z,12.85
2023-05-19T07:18:31.796Z,12.97
2023-05-19T07:20:58.958Z,13.02
2023-05-19T07:23:25.877Z,12.98
2023-05-19T07:25:59.862Z,12.78
2023-05-19T07:28:26.529Z,12.88
2023-05-19T07:30:53.496Z,13.15
2023-05-19T07:33:20.746Z,13.17
2023-05-19T07:35:47.826Z,13.30
2023-05-19T07:38:14.604Z,13.54
2023-05-19T07:40:41.376Z,13.59
2023-05-19T07:43:08.211Z,13.62
2023-05-19T07:45:35.075Z,13.59
2023-05-19T07:48:01.818Z,13.79
2023-05-19T07:50:28.660Z,13.81
2023-05-19T07:52:55.861Z,13.85
2023-05-19T07:55:26.242Z,13.91
2023-05-19T07:57:52.965Z,14.04
2023-05-19T08:00:19.931Z,14.05
2023-05-19T08:02:47.839Z,14.16
2023-05-19T08:05:15.988Z,14.17
2023-05-19T08:07:42.724Z,14.20
2023-05-19T08:10:09.521Z,14.31
2023-05-19T08:12:36.152Z,14.35
2023-05-19T08:15:02.852Z,14.32
2023-05-19T08:17:29.556Z,14.32
2023-05-19T08:19:57.236Z,14.47
2023-05-19T08:22:23.940Z,14.61
2023-05-19T08:24:51.744Z,14.63
2023-05-19T08:27:18.643Z,14.77
2023-05-19T08:29:45.360Z,15.08
2023-05-19T08:32:13.396Z,15.39
2023-05-19T08:34:41.240Z,15.44
2023-05-19T08:37:07.988Z,15.49
2023-05-19T08:39:34.955Z,15.30
2023-05-19T08:42:02.490Z,15.41
2023-05-19T08:44:30.838Z,15.69
2023-05-19T08:47:02.806Z,15.66
2023-05-19T08:49:33.462Z,15.75
2023-05-19T08:52:15.200Z,15.90
2023-05-19T08:54:48.324Z,16.02
2023-05-19T08:57:15.247Z,16.05
2023-05-19T08:59:43.664Z,16.25
2023-05-19T09:02:14.061Z,16.36
2023-05-19T09:04:42.097Z,16.53
2023-05-19T09:07:09.401Z,16.91
2023-05-19T09:09:36.090Z,16.91
2023-05-19T09:12:03.225Z,17.30
2023-05-19T09:14:30.823Z,17.11
2023-05-19T09:16:57.694Z,17.18
2023-05-19T09:19:28.871Z,17.23
2023-05-19T09:22:03.792Z,17.66
2023-05-19T09:24:31.571Z,18.33
2023-05-19T09:27:00.083Z,18.73
2023-05-19T09:29:27.176Z,19.13
2023-05-19T09:32:00.520Z,19.89
2023-05-19T09:34:27.770Z,21.32
2023-05-19T09:36:54.633Z,22.11
2023-05-19T09:39:23.102Z,21.52
2023-05-19T09:41:54.289Z,19.97
2023-05-19T09:44:21.213Z,19.40
2023-05-19T09:46:49.721Z,19.43
2023-05-19T09:49:24.047Z,19.62
2023-05-19T09:51:57.982Z,19.03
2023-05-19T09:54:25.695Z,19.11
2023-05-19T09:57:00.115Z,19.70
2023-05-19T09:59:30.538Z,20.22
2023-05-19T10:01:59.969Z,20.38
2023-05-19T10:04:28.370Z,21.07
2023-05-19T10:06:59.441Z,22.10
2023-05-19T10:09:27.818Z,22.15
2023-05-19T10:11:59.473Z,22.83
2023-05-19T10:14:29.624Z,23.40
2023-05-19T10:16:59.822Z,24.48
2023-05-19T10:19:29.790Z,24.48
2023-05-19T10:21:57.022Z,24.84
2023-05-19T10:24:23.711Z,24.83
2023-05-19T10:26:54.486Z,24.66
2023-05-19T10:29:27.312Z,24.68
2023-05-19T10:31:57.158Z,24.67
2023-05-19T10:34:52.008Z,24.74
2023-05-19T10:37:28.828Z,25.62
2023-05-19T10:39:55.917Z,24.91
2023-05-19T10:42:50.793Z,23.22
2023-05-19T10:45:23.940Z,23.84
2023-05-19T10:47:51.464Z,24.94
2023-05-19T10:50:18.333Z,25.73
2023-05-19T10:52:53.915Z,25.84
2023-05-19T10:55:53.827Z,26.06
2023-05-19T10:58:39.538Z,26.69
2023-05-19T11:01:33.269Z,26.61
2023-05-19T11:04:15.767Z,24.76
2023-05-19T11:06:51.725Z,25.19
2023-05-19T11:09:20.981Z,25.65
2023-05-19T11:11:55.423Z,25.49
2023-05-19T11:14:24.167Z,25.38
2023-05-19T11:16:52.416Z,24.86
2023-05-19T11:19:31.267Z,24.53
2023-05-19T11:22:11.427Z,24.19
2023-05-19T11:24:47.875Z,23.69
2023-05-19T11:27:31.642Z,23.89
2023-05-19T11:29:59.492Z,23.39
2023-05-19T11:32:31.563Z,24.08
2023-05-19T11:34:58.416Z,24.63
2023-05-19T11:37:25.583Z,25.11
2023-05-19T11:39:53.158Z,25.67
2023-05-19T11:42:20.136Z,25.60
2023-05-19T11:44:47.097Z,25.75
2023-05-19T11:47:17.254Z,26.03
2023-05-19T11:49:51.962Z,25.68
2023-05-19T11:52:22.100Z,25.65
2023-05-19T11:54:49.197Z,25.02
2023-05-19T11:57:16.081Z,25.08
2023-05-19T11:59:47.999Z,25.82
2023-05-19T12:02:21.772Z,24.83
2023-05-19T12:04:51.770Z,24.54
2023-05-19T12:07:22.895Z,24.52
2023-05-19T12:09:55.293Z,24.37
2023-05-19T12:12:22.976Z,24.05
2023-05-19T12:14:51.282Z,23.97
2023-05-19T12:17:20.099Z,23.30
2023-05-19T12:19:48.729Z,23.21
2023-05-19T12:22:16.738Z,23.39
2023-05-19T12:24:45.159Z,24.13
2023-05-19T12:27:20.048Z,24.47
2023-05-19T12:29:53.686Z,24.74
2023-05-19T12:32:27.826Z,24.15
2023-05-19T12:34:59.124Z,24.66
2023-05-19T12:37:31.701Z,25.41
2023-05-19T12:39:58.807Z,25.84
2023-05-19T12:42:31.442Z,26.22
2023-05-19T12:45:01.522Z,26.57
2023-05-19T12:47:33.406Z,27.31
2023-05-19T12:50:00.276Z,27.45
2023-05-19T12:52:29.239Z,25.43
2023-05-19T12:55:07.240Z,24.33
2023-05-19T12:57:35.078Z,23.29
2023-05-19T13:00:17.653Z,23.43
2023-05-19T13:03:00.119Z,23.67
2023-05-19T13:05:28.455Z,23.97
2023-05-19T13:07:56.247Z,24.35
2023-05-19T13:10:23.314Z,24.92
2023-05-19T13:12:49.966Z,25.24
2023-05-19T13:15:16.659Z,25.03
2023-05-19T13:17:46.346Z,25.36
2023-05-19T13:20:14.513Z,25.28
2023-05-19T13:22:41.358Z,25.70
2023-05-19T13:25:08.731Z,24.16
2023-05-19T13:27:35.877Z,22.73
2023-05-19T13:30:02.957Z,22.33
2023-05-19T13:32:29.708Z,22.78
2023-05-19T13:34:57.349Z,22.23
2023-05-19T13:37:24.430Z,22.17
2023-05-19T13:39:51.295Z,22.27
2023-05-19T13:42:18.277Z,23.09
2023-05-19T13:44:46.278Z,23.47
2023-05-19T13:47:13.571Z,23.87
2023-05-19T13:49:41.378Z,24.37
2023-05-19T13:52:08.306Z,23.72
2023-05-19T13:54:35.070Z,23.32
2023-05-19T13:57:01.763Z,22.99
2023-05-19T13:59:28.545Z,22.81
2023-05-19T14:01:55.647Z,22.67
2023-05-19T14:04:23.768Z,22.59
2023-05-19T14:06:50.914Z,21.73
2023-05-19T14:09:17.703Z,21.28
2023-05-19T14:11:44.435Z,20.65
2023-05-19T14:14:11.640Z,19.94
2023-05-19T14:16:42.925Z,20.16
2023-05-19T14:19:12.518Z,20.53
2023-05-19T14:21:43.385Z,20.39
2023-05-19T14:24:12.566Z,19.82
2023-05-19T14:26:46.416Z,19.64
2023-05-19T14:29:18.557Z,19.38
2023-05-19T14:31:49.623Z,19.52
2023-05-19T14:34:25.595Z,19.16
2023-05-19T14:36:55.212Z,19.26
2023-05-19T14:39:24.326Z,19.28
2023-05-19T14:41:52.928Z,19.56
2023-05-19T14:44:19.696Z,19.45
2023-05-19T14:46:46.850Z,19.41
2023-05-19T14:49:13.983Z,19.01
2023-05-19T14:51:40.652Z,18.86
2023-05-19T14:54:08.326Z,18.80
2023-05-19T14:56:35.431Z,18.44
2023-05-19T14:59:04.401Z,18.10
2023-05-19T15:01:31.150Z,17.84
2023-05-19T15:03:58.717Z,17.68
2023-05-19T15:06:25.998Z,17.55
2023-05-19T15:08:52.716Z,17.63
2023-05-19T15:11:19.355Z,17.49
2023-05-19T15:13:47.174Z,17.36
2023-05-19T15:16:16.822Z,17.30
2023-05-19T15:18:44.514Z,17.31
2023-05-19T15:21:11.311Z,17.42
2023-05-19T15:23:38.961Z,17.41
2023-05-19T15:26:07.709Z,17.42
2023-05-19T15:28:36.574Z,17.34
2023-05-19T15:31:04.214Z,17.22
2023-05-19T15:33:32.397Z,17.20
2023-05-19T15:36:01.163Z,17.14
2023-05-19T15:38:30.091Z,17.35
2023-05-19T15:40:59.075Z,17.27
2023-05-19T15:43:27.668Z,17.30
2023-05-19T15:45:57.563Z,17.12
2023-05-19T15:48:29.285Z,16.98
2023-05-19T15:50:59.115Z,16.76
2023-05-19T15:53:27.420Z,16.71
2023-05-19T15:55:57.888Z,16.58
2023-05-19T15:58:26.316Z,16.39
2023-05-19T16:00:54.811Z,16.34
2023-05-19T16:03:23.520Z,16.15
2023-05-19T16:05:53.344Z,16.05
2023-05-19T16:08:21.028Z,15.98
2023-05-19T16:10:51.093Z,15.91
2023-05-19T16:13:19.213Z,15.82
2023-05-19T16:15:47.678Z,15.70
2023-05-19T16:18:18.917Z,15.79
2023-05-19T16:20:47.433Z,15.81
2023-05-19T16:23:15.650Z,15.79
2023-05-19T16:25:43.584Z,15.74
2023-05-19T16:28:11.847Z,15.70
2023-05-19T16:30:42.219Z,15.61
2023-05-19T16:33:10.607Z,15.60
2023-05-19T16:35:38.883Z,15.55
2023-05-19T16:38:07.268Z,15.40
2023-05-19T16:40:35.748Z,15.20
2023-05-19T16:43:04.099Z,15.19
2023-05-19T16:45:32.355Z,15.19
2023-05-19T16:47:59.475Z,15.11
2023-05-19T16:50:26.262Z,15.11
2023-05-19T16:52:53.781Z,15.10
2023-05-19T16:55:22.633Z,15.15
2023-05-19T16:57:55.384Z,15.16
2023-05-19T17:00:26.515Z,15.08
2023-05-19T17:02:54.980Z,15.03
2023-05-19T17:05:23.235Z,15.08
2023-05-19T17:07:53.076Z,15.10
2023-05-19T17:10:21.301Z,15.13
2023-05-19T17:12:49.808Z,14.96
2023-05-19T17:15:20.077Z,14.87
2023-05-19T17:17:48.409Z,14.78
2023-05-19T17:20:16.780Z,14.70
2023-05-19T17:22:45.169Z,14.81
2023-05-19T17:25:13.176Z,14.83
2023-05-19T17:27:41.688Z,14.76
2023-05-19T17:30:10.378Z,14.79
2023-05-19T17:32:39.861Z,14.76
2023-05-19T17:35:08.932Z,14.66
2023-05-19T17:37:37.243Z,14.58
2023-05-19T17:40:04.851Z,14.54
2023-05-19T17:42:36.238Z,14.48
2023-05-19T17:45:08.062Z,14.44
2023-05-19T17:47:36.654Z,14.35
2023-05-19T17:50:04.812Z,14.40
2023-05-19T17:52:33.648Z,14.39
2023-05-19T17:55:02.301Z,14.35
2023-05-19T17:57:33.194Z,14.29
2023-05-19T18:00:01.944Z,14.25
2023-05-19T18:02:32.955Z,14.22
2023-05-19T18:05:01.835Z,14.25
2023-05-19T18:07:32.262Z,14.21
2023-05-19T18:10:02.267Z,14.13
2023-05-19T18:12:30.474Z,14.04
2023-05-19T18:14:58.566Z,14.05
2023-05-19T18:17:27.855Z,14.00
2023-05-19T18:19:56.192Z,13.95
2023-05-19T18:22:24.737Z,13.93
2023-05-19T18:24:52.756Z,13.86
2023-05-19T18:27:21.657Z,13.87
2023-05-19T18:29:49.621Z,13.79
2023-05-19T18:32:18.392Z,13.69
2023-05-19T18:34:47.949Z,13.61
2023-05-19T18:37:16.284Z,13.64
2023-05-19T18:39:44.529Z,13.59
2023-05-19T18:42:12.732Z,13.54
2023-05-19T18:44:42.261Z,13.57
2023-05-19T18:47:12.240Z,13.62
2023-05-19T18:49:40.626Z,13.58
2023-05-19T18:52:09.532Z,13.53
2023-05-19T18:54:41.320Z,13.54
2023-05-19T18:57:10.830Z,13.52
2023-05-19T18:59:39.275Z,13.43
2023-05-19T19:02:10.006Z,13.47
2023-05-19T19:04:39.526Z,13.43
2023-05-19T19:07:07.305Z,13.37
2023-05-19T19:09:35.511Z,13.33
2023-05-19T19:12:04.075Z,13.27
2023-05-19T19:14:32.345Z,13.32
2023-05-19T19:17:01.246Z,13.20
2023-05-19T19:19:31.181Z,13.25
2023-05-19T19:21:59.640Z,13.16
2023-05-19T19:24:29.046Z,13.20
2023-05-19T19:26:57.271Z,13.20
2023-05-19T19:29:27.361Z,13.19
2023-05-19T19:31:54.454Z,13.19
2023-05-19T19:34:21.328Z,13.15
2023-05-19T19:36:48.162Z,13.07
2023-05-19T19:39:14.868Z,13.06
2023-05-19T19:41:41.509Z,13.05
2023-05-19T19:44:08.259Z,13.01
2023-05-19T19:46:35.713Z,12.91
2023-05-19T19:49:02.638Z,12.88
2023-05-19T19:51:29.493Z,12.88
2023-05-19T19:53:57.435Z,12.86
2023-05-19T19:56:25.053Z,12.86
2023-05-19T19:58:51.911Z,12.83
2023-05-19T20:01:23.451Z,12.85
2023-05-19T20:03:50.611Z,12.92
2023-05-19T20:06:17.404Z,12.86
2023-05-19T20:08:44.289Z,12.92
2023-05-19T20:11:11.044Z,12.93
2023-05-19T20:13:37.636Z,12.95
2023-05-19T20:16:04.764Z,12.88
2023-05-19T20:18:31.423Z,12.79
2023-05-19T20:20:58.111Z,12.82
2023-05-19T20:23:24.760Z,12.78
2023-05-19T20:26:10.288Z,12.75
2023-05-19T20:28:38.128Z,12.74
2023-05-19T20:31:05.144Z,12.77
2023-05-19T20:33:32.042Z,12.77
2023-05-19T20:35:58.681Z,12.70
2023-05-19T20:38:25.462Z,12.65
2023-05-19T20:40:52.692Z,12.69
2023-05-19T20:43:19.411Z,12.65
2023-05-19T20:45:46.461Z,12.63
2023-05-19T20:48:13.324Z,12.68
2023-05-19T20:50:40.103Z,12.70
2023-05-19T20:53:07.359Z,12.65
2023-05-19T20:55:36.172Z,12.64
2023-05-19T20:58:03.210Z,12.64
2023-05-19T21:00:30.742Z,12.66
2023-05-19T21:02:57.728Z,12.62
2023-05-19T21:05:24.735Z,12.59
2023-05-19T21:07:51.458Z,12.56
2023-05-19T21:10:18.404Z,12.55
2023-05-19T21:12:46.373Z,12.57
2023-05-19T21:15:13.101Z,12.55
2023-05-19T21:17:39.784Z,12.52
2023-05-19T21:20:06.975Z,12.50
2023-05-19T21:22:35.639Z,12.47
2023-05-19T21:25:02.359Z,12.43
2023-05-19T21:27:29.153Z,12.43
2023-05-19T21:29:55.824Z,12.47
2023-05-19T21:32:22.497Z,12.45
2023-05-19T21:34:49.141Z,12.51
2023-05-19T21:37:17.324Z,12.54
2023-05-19T21:39:44.640Z,12.47
2023-05-19T21:42:11.278Z,12.43
2023-05-19T21:44:38.046Z,12.40
2023-05-19T21:47:04.791Z,12.40
2023-05-19T21:49:31.615Z,12.41
2023-05-19T21:51:58.568Z,12.44
2023-05-19T21:54:25.329Z,12.42
2023-05-19T21:56:52.262Z,12.34
2023-05-19T21:59:23.106Z,12.35
2023-05-19T22:01:49.791Z,12.34
2023-05-19T22:04:18.528Z,12.29
2023-05-19T22:06:46.241Z,12.32
2023-05-19T22:09:12.931Z,12.35
2023-05-19T22:11:40.140Z,12.35
2023-05-19T22:14:07.065Z,12.35
2023-05-19T22:16:33.820Z,12.21
2023-05-19T22:19:00.673Z,12.17
2023-05-19T22:21:27.425Z,12.20
2023-05-19T22:23:54.084Z,12.21
2023-05-19T22:26:21.666Z,12.24
2023-05-19T22:28:49.418Z,12.26
2023-05-19T22:31:16.705Z,12.28
2023-05-19T22:33:43.437Z,12.25
2023-05-19T22:36:11.048Z,12.20
2023-05-19T22:38:37.826Z,12.27
2023-05-19T22:41:04.733Z,12.29
2023-05-19T22:43:31.460Z,12.11
2023-05-19T22:45:58.240Z,12.15
2023-05-19T22:48:24.913Z,12.15
2023-05-19T22:50:51.556Z,12.20
2023-05-19T22:53:18.229Z,12.22
2023-05-19T22:55:44.897Z,12.27
2023-05-19T22:58:11.540Z,12.29
2023-05-19T23:00:38.179Z,12.23
2023-05-19T23:03:04.935Z,12.23
2023-05-19T23:05:32.046Z,12.28
2023-05-19T23:07:58.988Z,12.22
2023-05-19T23:10:25.641Z,12.18
2023-05-19T23:12:52.255Z,12.17
2023-05-19T23:15:19.000Z,12.07
2023-05-19T23:17:45.759Z,12.01
2023-05-19T23:20:13.218Z,11.99
2023-05-19T23:22:39.873Z,12.07
2023-05-19T23:25:07.881Z,12.05
2023-05-19T23:27:37.656Z,11.96
2023-05-19T23:30:04.750Z,11.94
2023-05-19T23:32:31.440Z,11.97
2023-05-19T23:34:58.180Z,11.95
2023-05-19T23:37:24.947Z,11.91
2023-05-19T23:39:51.619Z,11.81
2023-05-19T23:42:18.290Z,11.82
2023-05-19T23:44:44.971Z,11.74
2023-05-19T23:47:11.728Z,11.68
2023-05-19T23:49:38.643Z,11.64
2023-05-19T23:52:05.777Z,11.67
2023-05-19T23:54:32.448Z,11.62
2023-05-19T23:56:59.423Z,11.58
2023-05-19T23:59:26.113Z,11.56
